Wetterdaten: Woche 18.09.17 - 24.09.17 (KW38)
Datum Zeit Temp. A. Pool Temp. Feuchte A. Luftdruck Regen Wind Richtung Sonnenschein ET UV Solar Taupunkt Windchill Windben Empfang
18.09.2017 00:00 6,0 C 14,4 C 96 % 1014,2 hPa 0,0 l/m 0,4 km/h (0 Bft) S 0,00 h 0,000 mm 0,0 UV-I 0 W/m 5,4 C 6,0 C 1,0 km/h (0 Bft) 96,01 %
18.09.2017 01:00 5,4 C 14,4 C 96 % 1014,2 hPa 0,0 l/m 0,5 km/h (0 Bft) S 0,00 h 0,000 mm 0,0 UV-I 0 W/m 4,9 C 5,4 C 1,3 km/h (1 Bft) 96,59 %
18.09.2017 02:00 5,1 C 14,4 C 97 % 1014,4 hPa 0,0 l/m 1,6 km/h (1 Bft) S 0,00 h 0,000 mm 0,0 UV-I 0 W/m 4,7 C 5,1 C 3,2 km/h (1 Bft) 98,28 %
18.09.2017 03:00 4,9 C 14,4 C 97 % 1014,6 hPa 0,2 l/m 1,0 km/h (0 Bft) S 0,00 h 0,000 mm 0,0 UV-I 0 W/m 4,5 C 4,9 C 2,3 km/h (1 Bft) 99,19 %
18.09.2017 04:00 4,5 C 14,4 C 97 % 1014,9 hPa 0,0 l/m 1,1 km/h (1 Bft) S-SW 0,00 h 0,000 mm 0,0 UV-I 0 W/m 4,1 C 4,5 C 2,4 km/h (1 Bft) 96,32 %
18.09.2017 05:00 4,4 C 14,4 C 97 % 1015,3 hPa 0,0 l/m 0,3 km/h (0 Bft) S-SW 0,00 h 0,000 mm 0,0 UV-I 0 W/m 4,0 C 4,4 C 1,0 km/h (0 Bft) 99,52 %
18.09.2017 06:00 4,4 C 14,1 C 97 % 1016,1 hPa 0,0 l/m 1,2 km/h (1 Bft) S-SW 0,07 h 0,000 mm 0,0 UV-I 11 W/m 4,0 C 4,4 C 2,5 km/h (1 Bft) 97,57 %
18.09.2017 07:00 5,1 C 13,9 C 97 % 1016,8 hPa 0,0 l/m 0,9 km/h (0 Bft) SW 0,13 h 0,000 mm 0,0 UV-I 33 W/m 4,7 C 5,1 C 1,9 km/h (1 Bft) 98,20 %
18.09.2017 08:00 6,7 C 13,9 C 97 % 1017,3 hPa 0,0 l/m 0,1 km/h (0 Bft) SW 0,00 h 0,025 mm 0,0 UV-I 79 W/m 6,2 C 6,7 C 0,7 km/h (0 Bft) 98,21 %
18.09.2017 09:00 8,9 C 13,9 C 96 % 1017,7 hPa 0,0 l/m 4,1 km/h (1 Bft) SW 0,10 h 0,026 mm 0,7 UV-I 161 W/m 8,3 C 8,9 C 6,6 km/h (2 Bft) 99,75 %
18.09.2017 10:00 11,1 C 13,9 C 88 % 1017,8 hPa 0,0 l/m 4,7 km/h (1 Bft) W 0,83 h 0,076 mm 1,5 UV-I 335 W/m 9,2 C 11,0 C 8,4 km/h (2 Bft) 96,74 %
18.09.2017 11:00 12,6 C 13,9 C 80 % 1017,6 hPa 0,0 l/m 6,1 km/h (2 Bft) SW 0,77 h 0,178 mm 2,5 UV-I 577 W/m 9,2 C 12,1 C 11,1 km/h (2 Bft) 97,13 %
18.09.2017 12:00 13,7 C 14,0 C 73 % 1017,3 hPa 0,0 l/m 5,1 km/h (1 Bft) SW 0,53 h 0,279 mm 2,7 UV-I 489 W/m 8,9 C 13,4 C 9,9 km/h (2 Bft) 97,06 %
18.09.2017 13:00 14,0 C 14,3 C 71 % 1017,1 hPa 0,0 l/m 2,2 km/h (1 Bft) W-NW 0,33 h 0,280 mm 1,8 UV-I 379 W/m 8,8 C 14,0 C 5,0 km/h (1 Bft) 98,58 %
18.09.2017 14:00 14,7 C 14,4 C 69 % 1016,6 hPa 0,0 l/m 1,5 km/h (1 Bft) N-NO 0,60 h 0,177 mm 2,4 UV-I 482 W/m 9,0 C 14,7 C 3,8 km/h (1 Bft) 99,02 %
18.09.2017 15:00 15,6 C 14,4 C 68 % 1016,1 hPa 0,0 l/m 3,9 km/h (1 Bft) N-NO 0,93 h 0,254 mm 1,9 UV-I 518 W/m 9,6 C 15,6 C 8,5 km/h (2 Bft) 98,48 %
18.09.2017 16:00 14,4 C 14,4 C 73 % 1016,0 hPa 0,0 l/m 3,8 km/h (1 Bft) N-NO 0,53 h 0,280 mm 0,9 UV-I 276 W/m 9,7 C 14,3 C 7,9 km/h (2 Bft) 98,67 %
18.09.2017 17:00 13,9 C 14,4 C 73 % 1015,8 hPa 0,0 l/m 1,9 km/h (1 Bft) N-NO 0,07 h 0,152 mm 0,5 UV-I 129 W/m 9,2 C 13,9 C 4,2 km/h (1 Bft) 98,91 %
18.09.2017 18:00 12,7 C 14,4 C 84 % 1015,7 hPa 0,0 l/m 1,6 km/h (1 Bft) N-NO 0,07 h 0,076 mm 0,0 UV-I 44 W/m 9,9 C 12,7 C 2,5 km/h (1 Bft) 96,62 %
18.09.2017 19:00 10,9 C 14,4 C 89 % 1016,1 hPa 0,0 l/m 1,3 km/h (1 Bft) O-SO 0,00 h 0,026 mm 0,0 UV-I 8 W/m 9,1 C 10,9 C 2,2 km/h (1 Bft) 98,65 %
18.09.2017 20:00 10,5 C 14,4 C 91 % 1016,5 hPa 0,0 l/m 0,7 km/h (0 Bft) O-SO 0,00 h 0,000 mm 0,0 UV-I 0 W/m 9,1 C 10,5 C 1,8 km/h (1 Bft) 98,42 %
18.09.2017 21:00 10,4 C 14,4 C 91 % 1016,6 hPa 0,0 l/m 0,9 km/h (0 Bft) O-SO 0,00 h 0,000 mm 0,0 UV-I 0 W/m 8,9 C 10,4 C 2,1 km/h (1 Bft) 98,92 %
18.09.2017 22:00 10,4 C 14,4 C 92 % 1016,6 hPa 0,0 l/m 1,2 km/h (1 Bft) S-SW 0,00 h 0,000 mm 0,0 UV-I 0 W/m 9,1 C 10,4 C 1,9 km/h (1 Bft) 96,44 %
18.09.2017 23:00 10,5 C 14,4 C 92 % 1016,5 hPa 0,0 l/m 2,2 km/h (1 Bft) S-SW 0,00 h 0,000 mm 0,0 UV-I 0 W/m 9,2 C 10,5 C 3,6 km/h (1 Bft) 99,47 %
19.09.2017 00:00 10,6 C 14,4 C 92 % 1016,3 hPa 0,0 l/m 0,0 km/h (0 Bft) N 0,00 h 0,000 mm 0,0 UV-I 0 W/m 9,4 C 10,6 C 0,1 km/h (0 Bft) 94,60 %
19.09.2017 01:00 10,4 C 14,4 C 93 % 1016,2 hPa 0,2 l/m 1,0 km/h (0 Bft) W-SW 0,00 h 0,000 mm 0,0 UV-I 0 W/m 9,3 C 10,4 C 2,0 km/h (1 Bft) 97,68 %
19.09.2017 02:00 10,4 C 14,4 C 94 % 1015,9 hPa 0,0 l/m 3,6 km/h (1 Bft) S-SW 0,00 h 0,000 mm 0,0 UV-I 0 W/m 9,5 C 10,4 C 6,3 km/h (2 Bft) 97,79 %
19.09.2017 03:00 10,3 C 14,4 C 95 % 1015,5 hPa 0,2 l/m 6,1 km/h (2 Bft) S-SW 0,00 h 0,000 mm 0,0 UV-I 0 W/m 9,6 C 9,9 C 9,6 km/h (2 Bft) 99,71 %
19.09.2017 04:00 9,9 C 14,1 C 94 % 1015,3 hPa 0,2 l/m 6,7 km/h (2 Bft) SW 0,00 h 0,000 mm 0,0 UV-I 0 W/m 9,1 C 9,5 C 10,6 km/h (2 Bft) 96,78 %
19.09.2017 05:00 9,6 C 13,9 C 94 % 1015,2 hPa 0,4 l/m 5,9 km/h (2 Bft) W-SW 0,00 h 0,000 mm 0,0 UV-I 0 W/m 8,7 C 9,4 C 9,9 km/h (2 Bft) 97,07 %
19.09.2017 06:00 9,4 C 13,9 C 95 % 1015,3 hPa 0,4 l/m 6,2 km/h (2 Bft) W-SW 0,00 h 0,000 mm 0,0 UV-I 5 W/m 8,6 C 9,1 C 10,1 km/h (2 Bft) 97,99 %
19.09.2017 07:00 9,3 C 13,9 C 95 % 1015,5 hPa 1,0 l/m 5,5 km/h (1 Bft) W-SW 0,00 h 0,000 mm 0,0 UV-I 12 W/m 8,6 C 9,2 C 8,6 km/h (2 Bft) 99,48 %
19.09.2017 08:00 9,4 C 13,9 C 96 % 1015,5 hPa 1,0 l/m 3,4 km/h (1 Bft) W-SW 0,00 h 0,000 mm 0,0 UV-I 26 W/m 8,8 C 9,4 C 5,8 km/h (2 Bft) 96,96 %
19.09.2017 09:00 9,4 C 13,9 C 96 % 1015,6 hPa 0,8 l/m 1,9 km/h (1 Bft) W-SW 0,00 h 0,025 mm 0,0 UV-I 49 W/m 8,8 C 9,4 C 4,6 km/h (1 Bft) 98,21 %
19.09.2017 10:00 9,5 C 13,9 C 96 % 1015,6 hPa 0,6 l/m 0,5 km/h (0 Bft) W-NW 0,00 h 0,026 mm 0,5 UV-I 100 W/m 8,9 C 9,5 C 2,3 km/h (1 Bft) 97,22 %
19.09.2017 11:00 10,0 C 13,9 C 95 % 1015,5 hPa 0,2 l/m 0,9 km/h (0 Bft) NW 0,00 h 0,051 mm 1,0 UV-I 184 W/m 9,3 C 10,0 C 2,9 km/h (1 Bft) 99,09 %
19.09.2017 12:00 10,6 C 13,9 C 93 % 1015,1 hPa 0,0 l/m 2,3 km/h (1 Bft) W-SW 0,00 h 0,076 mm 1,2 UV-I 217 W/m 9,5 C 10,6 C 4,7 km/h (1 Bft) 96,09 %
19.09.2017 13:00 10,9 C 13,9 C 92 % 1014,9 hPa 0,0 l/m 5,8 km/h (2 Bft) W-SW 0,00 h 0,101 mm 1,0 UV-I 180 W/m 9,6 C 10,7 C 9,8 km/h (2 Bft) 98,48 %
19.09.2017 14:00 11,0 C 13,9 C 92 % 1014,6 hPa 0,0 l/m 7,3 km/h (2 Bft) W-SW 0,00 h 0,102 mm 0,9 UV-I 169 W/m 9,7 C 10,2 C 12,4 km/h (3 Bft) 97,66 %
19.09.2017 15:00 11,4 C 13,9 C 91 % 1014,3 hPa 0,0 l/m 11,0 km/h (2 Bft) W-SW 0,00 h 0,076 mm 0,7 UV-I 167 W/m 10,1 C 8,7 C 16,6 km/h (3 Bft) 99,47 %
19.09.2017 16:00 11,3 C 13,9 C 88 % 1014,4 hPa 0,0 l/m 10,5 km/h (2 Bft) W-SW 0,00 h 0,102 mm 0,5 UV-I 95 W/m 9,4 C 8,8 C 16,7 km/h (3 Bft) 96,75 %
19.09.2017 17:00 10,7 C 13,9 C 90 % 1014,5 hPa 1,0 l/m 9,3 km/h (2 Bft) W-SW 0,00 h 0,051 mm 0,0 UV-I 36 W/m 9,2 C 8,8 C 14,4 km/h (3 Bft) 98,54 %
19.09.2017 18:00 10,1 C 13,9 C 92 % 1014,9 hPa 0,2 l/m 8,7 km/h (2 Bft) SW 0,00 h 0,025 mm 0,0 UV-I 13 W/m 8,9 C 8,6 C 13,1 km/h (3 Bft) 97,73 %
19.09.2017 19:00 9,6 C 13,9 C 93 % 1015,5 hPa 0,6 l/m 10,0 km/h (2 Bft) SW 0,00 h 0,025 mm 0,0 UV-I 4 W/m 8,6 C 7,2 C 15,5 km/h (3 Bft) 98,89 %
19.09.2017 20:00 9,4 C 13,9 C 94 % 1016,0 hPa 0,6 l/m 9,6 km/h (2 Bft) S-SW 0,00 h 0,000 mm 0,0 UV-I 0 W/m 8,4 C 7,2 C 15,9 km/h (3 Bft) 97,40 %
19.09.2017 21:00 9,2 C 13,9 C 95 % 1016,5 hPa 0,2 l/m 10,3 km/h (2 Bft) SW 0,00 h 0,000 mm 0,0 UV-I 0 W/m 8,5 C 6,6 C 15,3 km/h (3 Bft) 99,75 %
19.09.2017 22:00 9,1 C 13,9 C 95 % 1016,9 hPa 0,6 l/m 8,3 km/h (2 Bft) SW 0,00 h 0,000 mm 0,0 UV-I 0 W/m 8,3 C 7,6 C 13,1 km/h (3 Bft) 98,10 %
19.09.2017 23:00 8,9 C 13,9 C 95 % 1017,0 hPa 0,8 l/m 10,6 km/h (2 Bft) SW 0,00 h 0,000 mm 0,0 UV-I 0 W/m 8,1 C 6,1 C 16,7 km/h (3 Bft) 98,57 %
20.09.2017 00:00 8,8 C 13,9 C 95 % 1016,8 hPa 0,2 l/m 14,1 km/h (3 Bft) SW 0,00 h 0,000 mm 0,0 UV-I 0 W/m 8,1 C 4,1 C 21,8 km/h (4 Bft) 96,73 %
20.09.2017 01:00 8,8 C 13,9 C 95 % 1016,8 hPa 0,0 l/m 14,5 km/h (3 Bft) SW 0,00 h 0,000 mm 0,0 UV-I 0 W/m 8,0 C 3,9 C 22,0 km/h (4 Bft) 99,27 %
20.09.2017 02:00 8,8 C 13,4 C 94 % 1017,0 hPa 0,0 l/m 13,1 km/h (3 Bft) SW 0,00 h 0,000 mm 0,0 UV-I 0 W/m 7,9 C 4,6 C 19,6 km/h (3 Bft) 98,35 %
20.09.2017 03:00 8,8 C 13,3 C 95 % 1017,0 hPa 0,0 l/m 12,1 km/h (2 Bft) SW 0,00 h 0,000 mm 0,0 UV-I 0 W/m 8,0 C 5,1 C 17,8 km/h (3 Bft) 97,35 %
20.09.2017 04:00 8,7 C 13,3 C 95 % 1017,0 hPa 0,0 l/m 10,6 km/h (2 Bft) W-SW 0,00 h 0,000 mm 0,0 UV-I 0 W/m 8,0 C 5,9 C 16,0 km/h (3 Bft) 97,21 %
20.09.2017 05:00 9,0 C 13,3 C 95 % 1017,4 hPa 0,0 l/m 10,1 km/h (2 Bft) W-SW 0,00 h 0,000 mm 0,0 UV-I 0 W/m 8,2 C 6,5 C 15,9 km/h (3 Bft) 98,78 %
20.09.2017 06:00 9,1 C 13,3 C 95 % 1017,8 hPa 0,0 l/m 9,7 km/h (2 Bft) W-SW 0,00 h 0,000 mm 0,0 UV-I 5 W/m 8,4 C 6,8 C 15,1 km/h (3 Bft) 98,85 %
20.09.2017 07:00 9,2 C 13,3 C 95 % 1018,2 hPa 0,0 l/m 8,4 km/h (2 Bft) W-SW 0,00 h 0,000 mm 0,0 UV-I 23 W/m 8,5 C 7,8 C 13,3 km/h (3 Bft) 96,92 %
20.09.2017 08:00 9,7 C 13,3 C 93 % 1018,6 hPa 0,0 l/m 8,2 km/h (2 Bft) W-SW 0,00 h 0,025 mm 0,0 UV-I 67 W/m 8,6 C 8,4 C 14,6 km/h (3 Bft) 98,21 %
20.09.2017 09:00 10,1 C 13,3 C 92 % 1018,9 hPa 0,2 l/m 8,4 km/h (2 Bft) W-SW 0,00 h 0,026 mm 0,4 UV-I 148 W/m 8,9 C 8,7 C 15,4 km/h (3 Bft) 98,51 %
20.09.2017 10:00 10,2 C 13,3 C 93 % 1019,1 hPa 0,0 l/m 10,2 km/h (2 Bft) W 0,07 h 0,076 mm 1,0 UV-I 206 W/m 9,2 C 7,8 C 16,5 km/h (3 Bft) 99,14 %
20.09.2017 11:00 11,1 C 13,3 C 90 % 1019,2 hPa 0,0 l/m 9,9 km/h (2 Bft) W 0,13 h 0,102 mm 1,3 UV-I 269 W/m 9,5 C 9,0 C 17,0 km/h (3 Bft) 96,84 %
20.09.2017 12:00 12,0 C 13,3 C 86 % 1019,2 hPa 0,0 l/m 12,2 km/h (2 Bft) W-SW 0,53 h 0,127 mm 2,0 UV-I 384 W/m 9,8 C 8,8 C 19,9 km/h (4 Bft) 97,71 %
20.09.2017 13:00 13,5 C 13,3 C 80 % 1018,7 hPa 0,0 l/m 13,8 km/h (3 Bft) W-SW 0,63 h 0,228 mm 2,2 UV-I 455 W/m 10,1 C 10,0 C 22,1 km/h (4 Bft) 99,06 %
20.09.2017 14:00 13,8 C 13,3 C 76 % 1018,6 hPa 0,0 l/m 13,8 km/h (3 Bft) W-SW 0,57 h 0,254 mm 1,7 UV-I 390 W/m 9,7 C 10,3 C 23,1 km/h (4 Bft) 98,06 %
20.09.2017 15:00 14,4 C 13,3 C 73 % 1018,5 hPa 0,0 l/m 11,7 km/h (2 Bft) W-SW 0,60 h 0,254 mm 1,3 UV-I 340 W/m 9,6 C 11,8 C 19,2 km/h (3 Bft) 99,58 %
20.09.2017 16:00 14,1 C 13,3 C 75 % 1018,4 hPa 0,0 l/m 12,1 km/h (2 Bft) W-SW 0,37 h 0,203 mm 0,7 UV-I 212 W/m 9,7 C 11,2 C 19,5 km/h (3 Bft) 96,23 %
20.09.2017 17:00 13,6 C 13,3 C 78 % 1018,6 hPa 0,0 l/m 10,9 km/h (2 Bft) W-SW 0,03 h 0,153 mm 0,0 UV-I 102 W/m 9,8 C 11,2 C 16,8 km/h (3 Bft) 98,30 %
20.09.2017 18:00 12,2 C 13,4 C 83 % 1018,8 hPa 0,0 l/m 12,6 km/h (3 Bft) W-SW 0,03 h 0,076 mm 0,0 UV-I 24 W/m 9,4 C 8,8 C 19,0 km/h (3 Bft) 98,36 %
20.09.2017 19:00 11,2 C 13,8 C 86 % 1019,5 hPa 0,0 l/m 11,8 km/h (2 Bft) W-SW 0,00 h 0,025 mm 0,0 UV-I 5 W/m 8,9 C 8,1 C 17,7 km/h (3 Bft) 99,79 %
20.09.2017 20:00 10,6 C 13,6 C 87 % 1020,1 hPa 0,0 l/m 13,5 km/h (3 Bft) SW 0,00 h 0,026 mm 0,0 UV-I 0 W/m 8,6 C 6,5 C 20,8 km/h (4 Bft) 96,42 %
20.09.2017 21:00 10,0 C 13,3 C 87 % 1020,2 hPa 0,0 l/m 12,4 km/h (3 Bft) SW 0,00 h 0,025 mm 0,0 UV-I 0 W/m 8,0 C 6,4 C 19,3 km/h (3 Bft) 99,05 %
20.09.2017 22:00 10,0 C 13,3 C 86 % 1020,4 hPa 0,0 l/m 11,9 km/h (2 Bft) W-SW 0,00 h 0,026 mm 0,0 UV-I 0 W/m 7,8 C 6,5 C 18,4 km/h (3 Bft) 98,11 %
20.09.2017 23:00 9,9 C 13,3 C 87 % 1020,6 hPa 0,0 l/m 10,1 km/h (2 Bft) W-SW 0,00 h 0,025 mm 0,0 UV-I 0 W/m 7,8 C 7,4 C 16,3 km/h (3 Bft) 99,46 %
21.09.2017 00:00 9,8 C 13,3 C 87 % 1020,7 hPa 0,0 l/m 8,5 km/h (2 Bft) W-SW 0,00 h 0,000 mm 0,0 UV-I 0 W/m 7,7 C 8,2 C 13,5 km/h (3 Bft) 95,54 %
21.09.2017 01:00 9,7 C 13,3 C 89 % 1020,9 hPa 0,0 l/m 8,5 km/h (2 Bft) SW 0,00 h 0,025 mm 0,0 UV-I 0 W/m 7,9 C 8,1 C 12,4 km/h (3 Bft) 99,16 %
21.09.2017 02:00 9,5 C 13,3 C 90 % 1020,8 hPa 0,0 l/m 11,3 km/h (2 Bft) SW 0,00 h 0,026 mm 0,0 UV-I 0 W/m 8,0 C 6,3 C 17,4 km/h (3 Bft) 97,86 %
21.09.2017 03:00 9,3 C 13,3 C 92 % 1020,6 hPa 0,0 l/m 10,7 km/h (2 Bft) SW 0,00 h 0,025 mm 0,0 UV-I 0 W/m 8,0 C 6,5 C 16,2 km/h (3 Bft) 98,92 %
21.09.2017 04:00 9,3 C 13,3 C 92 % 1020,4 hPa 0,0 l/m 8,7 km/h (2 Bft) SW 0,00 h 0,000 mm 0,0 UV-I 0 W/m 8,1 C 7,6 C 13,0 km/h (3 Bft) 96,44 %
21.09.2017 05:00 9,3 C 13,3 C 93 % 1020,3 hPa 0,0 l/m 8,4 km/h (2 Bft) SW 0,00 h 0,000 mm 0,0 UV-I 0 W/m 8,2 C 7,8 C 13,0 km/h (3 Bft) 99,70 %
21.09.2017 06:00 9,3 C 13,3 C 92 % 1020,3 hPa 0,0 l/m 7,9 km/h (2 Bft) W-SW 0,00 h 0,000 mm 0,0 UV-I 5 W/m 8,1 C 8,1 C 12,3 km/h (3 Bft) 98,14 %
21.09.2017 07:00 9,3 C 13,3 C 92 % 1020,5 hPa 0,0 l/m 4,8 km/h (1 Bft) SW 0,00 h 0,000 mm 0,0 UV-I 14 W/m 8,1 C 9,2 C 7,2 km/h (2 Bft) 98,17 %
21.09.2017 08:00 9,6 C 13,2 C 92 % 1020,5 hPa 0,0 l/m 7,7 km/h (2 Bft) W-SW 0,00 h 0,000 mm 0,0 UV-I 63 W/m 8,4 C 8,7 C 12,3 km/h (3 Bft) 97,16 %
21.09.2017 09:00 10,1 C 13,2 C 91 % 1020,8 hPa 0,0 l/m 7,3 km/h (2 Bft) W-SW 0,00 h 0,026 mm 0,5 UV-I 120 W/m 8,7 C 9,3 C 11,8 km/h (2 Bft) 99,41 %
21.09.2017 10:00 11,1 C 13,3 C 89 % 1021,3 hPa 0,0 l/m 6,2 km/h (2 Bft) W-SW 0,03 h 0,050 mm 0,9 UV-I 225 W/m 9,3 C 10,6 C 10,2 km/h (2 Bft) 98,25 %
21.09.2017 11:00 12,4 C 13,3 C 85 % 1021,1 hPa 0,0 l/m 11,5 km/h (2 Bft) W-SW 0,70 h 0,127 mm 1,8 UV-I 363 W/m 9,9 C 9,6 C 18,0 km/h (3 Bft) 98,89 %
21.09.2017 12:00 13,4 C 13,3 C 77 % 1020,7 hPa 0,0 l/m 13,6 km/h (3 Bft) W-SW 0,87 h 0,204 mm 2,2 UV-I 422 W/m 9,5 C 9,9 C 21,4 km/h (4 Bft) 95,63 %
21.09.2017 13:00 13,8 C 13,3 C 75 % 1020,5 hPa 0,0 l/m 9,3 km/h (2 Bft) W-SW 0,23 h 0,254 mm 1,7 UV-I 322 W/m 9,4 C 12,1 C 15,9 km/h (3 Bft) 99,06 %
21.09.2017 14:00 13,8 C 13,3 C 74 % 1020,2 hPa 0,0 l/m 8,2 km/h (2 Bft) W 0,00 h 0,177 mm 1,1 UV-I 207 W/m 9,3 C 12,7 C 14,8 km/h (3 Bft) 98,23 %
21.09.2017 15:00 13,8 C 13,3 C 75 % 1020,0 hPa 0,0 l/m 9,3 km/h (2 Bft) W-SW 0,00 h 0,127 mm 0,8 UV-I 174 W/m 9,5 C 12,2 C 14,9 km/h (3 Bft) 99,05 %
21.09.2017 16:00 13,8 C 13,3 C 75 % 1019,9 hPa 0,0 l/m 9,0 km/h (2 Bft) W-SW 0,00 h 0,127 mm 0,5 UV-I 116 W/m 9,5 C 12,4 C 14,6 km/h (3 Bft) 96,76 %
21.09.2017 17:00 13,3 C 13,3 C 78 % 1019,8 hPa 0,0 l/m 6,8 km/h (2 Bft) W-SW 0,00 h 0,077 mm 0,0 UV-I 52 W/m 9,5 C 12,9 C 11,4 km/h (2 Bft) 98,12 %
21.09.2017 18:00 12,9 C 13,3 C 81 % 1019,7 hPa 0,0 l/m 5,2 km/h (1 Bft) W-SW 0,00 h 0,050 mm 0,0 UV-I 22 W/m 9,7 C 12,9 C 8,1 km/h (2 Bft) 98,44 %
21.09.2017 19:00 12,2 C 13,3 C 86 % 1019,8 hPa 0,0 l/m 4,5 km/h (1 Bft) SW 0,00 h 0,026 mm 0,0 UV-I 5 W/m 9,9 C 12,2 C 6,3 km/h (2 Bft) 99,27 %
21.09.2017 20:00 12,1 C 13,3 C 86 % 1020,0 hPa 0,0 l/m 4,8 km/h (1 Bft) S-SW 0,00 h 0,000 mm 0,0 UV-I 0 W/m 9,8 C 12,0 C 7,5 km/h (2 Bft) 96,56 %
21.09.2017 21:00 11,9 C 13,3 C 86 % 1020,0 hPa 0,0 l/m 4,5 km/h (1 Bft) S-SW 0,00 h 0,000 mm 0,0 UV-I 0 W/m 9,6 C 11,8 C 6,2 km/h (2 Bft) 98,76 %
21.09.2017 22:00 11,5 C 13,3 C 88 % 1019,9 hPa 0,0 l/m 4,6 km/h (1 Bft) SW 0,00 h 0,000 mm 0,0 UV-I 0 W/m 9,5 C 11,4 C 7,0 km/h (2 Bft) 98,49 %
21.09.2017 23:00 11,0 C 13,3 C 88 % 1019,7 hPa 0,0 l/m 6,9 km/h (2 Bft) S-SW 0,00 h 0,000 mm 0,0 UV-I 0 W/m 9,1 C 10,6 C 10,3 km/h (2 Bft) 98,97 %
22.09.2017 00:00 10,7 C 13,3 C 88 % 1019,8 hPa 0,0 l/m 6,6 km/h (2 Bft) SW 0,00 h 0,000 mm 0,0 UV-I 0 W/m 8,7 C 10,4 C 10,3 km/h (2 Bft) 96,45 %
22.09.2017 01:00 10,3 C 13,3 C 88 % 1019,9 hPa 0,0 l/m 7,0 km/h (2 Bft) SW 0,00 h 0,000 mm 0,0 UV-I 0 W/m 8,4 C 9,8 C 10,6 km/h (2 Bft) 98,94 %
22.09.2017 02:00 10,1 C 13,3 C 89 % 1019,8 hPa 0,0 l/m 7,5 km/h (2 Bft) S-SW 0,00 h 0,000 mm 0,0 UV-I 0 W/m 8,3 C 9,2 C 11,6 km/h (2 Bft) 97,59 %
22.09.2017 03:00 9,8 C 13,3 C 88 % 1019,7 hPa 0,0 l/m 7,7 km/h (2 Bft) SW 0,00 h 0,000 mm 0,0 UV-I 0 W/m 7,9 C 8,7 C 12,2 km/h (2 Bft) 98,07 %
22.09.2017 04:00 9,6 C 13,3 C 88 % 1019,6 hPa 0,0 l/m 4,6 km/h (1 Bft) SW 0,00 h 0,000 mm 0,0 UV-I 0 W/m 7,7 C 9,6 C 7,1 km/h (2 Bft) 97,97 %
22.09.2017 05:00 8,6 C 12,8 C 89 % 1019,8 hPa 0,0 l/m 1,7 km/h (1 Bft) SW 0,00 h 0,000 mm 0,0 UV-I 0 W/m 7,0 C 8,6 C 3,5 km/h (1 Bft) 99,38 %
22.09.2017 06:00 7,8 C 12,8 C 92 % 1019,8 hPa 0,0 l/m 3,1 km/h (1 Bft) S-SW 0,00 h 0,000 mm 0,0 UV-I 6 W/m 6,5 C 7,8 C 5,0 km/h (1 Bft) 97,42 %
22.09.2017 07:00 7,9 C 12,8 C 93 % 1020,1 hPa 0,0 l/m 2,8 km/h (1 Bft) S-SW 0,60 h 0,000 mm 0,0 UV-I 81 W/m 6,8 C 7,9 C 4,8 km/h (1 Bft) 98,13 %
22.09.2017 08:00 9,3 C 12,8 C 92 % 1020,4 hPa 0,0 l/m 3,3 km/h (1 Bft) SW 0,00 h 0,025 mm 0,0 UV-I 68 W/m 8,1 C 9,3 C 5,4 km/h (1 Bft) 98,08 %
22.09.2017 09:00 10,3 C 12,8 C 89 % 1020,7 hPa 0,0 l/m 4,0 km/h (1 Bft) SW 0,00 h 0,026 mm 0,6 UV-I 127 W/m 8,6 C 10,3 C 6,6 km/h (2 Bft) 99,33 %
22.09.2017 10:00 11,6 C 12,8 C 84 % 1020,7 hPa 0,0 l/m 3,9 km/h (1 Bft) S-SW 0,00 h 0,076 mm 0,9 UV-I 194 W/m 9,0 C 11,6 C 6,2 km/h (2 Bft) 96,22 %
22.09.2017 11:00 13,4 C 12,8 C 77 % 1020,5 hPa 0,0 l/m 1,5 km/h (1 Bft) S-SO 0,37 h 0,102 mm 1,9 UV-I 341 W/m 9,4 C 13,4 C 3,5 km/h (1 Bft) 97,15 %
22.09.2017 12:00 16,1 C 12,8 C 69 % 1020,3 hPa 0,0 l/m 2,6 km/h (1 Bft) NO 0,67 h 0,177 mm 2,6 UV-I 519 W/m 10,4 C 16,1 C 4,8 km/h (1 Bft) 98,27 %
22.09.2017 13:00 16,2 C 12,8 C 67 % 1020,5 hPa 0,0 l/m 0,9 km/h (0 Bft) O-NO 0,00 h 0,280 mm 1,2 UV-I 197 W/m 10,1 C 16,2 C 2,7 km/h (1 Bft) 99,25 %
22.09.2017 14:00 16,0 C 12,8 C 67 % 1020,3 hPa 0,0 l/m 1,4 km/h (1 Bft) O-NO 0,27 h 0,101 mm 1,5 UV-I 268 W/m 9,8 C 16,0 C 3,0 km/h (1 Bft) 97,82 %
22.09.2017 15:00 16,3 C 13,2 C 65 % 1020,2 hPa 0,0 l/m 0,6 km/h (0 Bft) SW 0,00 h 0,153 mm 0,7 UV-I 135 W/m 9,6 C 16,3 C 2,0 km/h (1 Bft) 99,55 %
22.09.2017 16:00 15,9 C 13,3 C 72 % 1020,3 hPa 0,0 l/m 0,3 km/h (0 Bft) SW 0,00 h 0,076 mm 0,4 UV-I 99 W/m 10,9 C 15,9 C 0,7 km/h (0 Bft) 96,71 %
22.09.2017 17:00 15,3 C 13,3 C 77 % 1020,5 hPa 0,0 l/m 1,9 km/h (1 Bft) O-SO 0,00 h 0,051 mm 0,0 UV-I 55 W/m 11,3 C 15,3 C 3,3 km/h (1 Bft) 97,28 %
22.09.2017 18:00 14,0 C 13,3 C 86 % 1020,4 hPa 0,2 l/m 2,9 km/h (1 Bft) O-SO 0,07 h 0,025 mm 0,0 UV-I 22 W/m 11,7 C 14,0 C 4,3 km/h (1 Bft) 98,16 %
22.09.2017 19:00 12,7 C 13,3 C 89 % 1020,6 hPa 0,0 l/m 0,3 km/h (0 Bft) O-SO 0,00 h 0,026 mm 0,0 UV-I 5 W/m 11,0 C 12,7 C 1,0 km/h (0 Bft) 99,30 %
22.09.2017 20:00 11,5 C 13,3 C 91 % 1021,1 hPa 0,0 l/m 0,4 km/h (0 Bft) O-SO 0,00 h 0,000 mm 0,0 UV-I 0 W/m 10,1 C 11,5 C 1,8 km/h (1 Bft) 96,52 %
22.09.2017 21:00 11,1 C 13,3 C 93 % 1021,4 hPa 0,0 l/m 0,7 km/h (0 Bft) O-SO 0,00 h 0,000 mm 0,0 UV-I 0 W/m 10,0 C 11,1 C 1,5 km/h (1 Bft) 99,06 %
22.09.2017 22:00 10,8 C 13,3 C 94 % 1021,5 hPa 0,0 l/m 2,8 km/h (1 Bft) S-SW 0,00 h 0,000 mm 0,0 UV-I 0 W/m 9,9 C 10,8 C 4,9 km/h (1 Bft) 98,00 %
22.09.2017 23:00 10,4 C 13,3 C 94 % 1021,9 hPa 0,0 l/m 2,5 km/h (1 Bft) S 0,00 h 0,000 mm 0,0 UV-I 0 W/m 9,4 C 10,4 C 4,4 km/h (1 Bft) 99,22 %
23.09.2017 00:00 9,5 C 12,9 C 93 % 1021,9 hPa 0,0 l/m 1,6 km/h (1 Bft) S 0,00 h 0,000 mm 0,0 UV-I 0 W/m 8,5 C 9,5 C 3,0 km/h (1 Bft) 96,23 %
23.09.2017 01:00 8,8 C 12,8 C 93 % 1021,9 hPa 0,0 l/m 2,1 km/h (1 Bft) S 0,00 h 0,000 mm 0,0 UV-I 0 W/m 7,7 C 8,8 C 3,6 km/h (1 Bft) 99,53 %
23.09.2017 02:00 8,2 C 12,8 C 94 % 1021,9 hPa 0,2 l/m 2,8 km/h (1 Bft) S 0,00 h 0,000 mm 0,0 UV-I 0 W/m 7,3 C 8,2 C 4,7 km/h (1 Bft) 98,43 %
23.09.2017 03:00 7,9 C 12,8 C 95 % 1021,9 hPa 0,0 l/m 1,4 km/h (1 Bft) S-SW 0,00 h 0,000 mm 0,0 UV-I 0 W/m 7,1 C 7,9 C 2,7 km/h (1 Bft) 96,11 %
23.09.2017 04:00 7,7 C 12,8 C 95 % 1021,8 hPa 0,0 l/m 4,2 km/h (1 Bft) SW 0,00 h 0,000 mm 0,0 UV-I 0 W/m 6,9 C 7,7 C 6,3 km/h (2 Bft) 98,33 %
23.09.2017 05:00 7,5 C 12,8 C 95 % 1021,6 hPa 0,0 l/m 0,9 km/h (0 Bft) SW 0,00 h 0,000 mm 0,0 UV-I 0 W/m 6,7 C 7,5 C 1,5 km/h (1 Bft) 98,71 %
23.09.2017 06:00 6,7 C 12,8 C 95 % 1021,7 hPa 0,0 l/m 2,1 km/h (1 Bft) SW 0,00 h 0,000 mm 0,0 UV-I 7 W/m 6,0 C 6,7 C 3,9 km/h (1 Bft) 97,80 %
23.09.2017 07:00 6,7 C 12,8 C 96 % 1022,2 hPa 0,0 l/m 0,2 km/h (0 Bft) S-SW 0,07 h 0,000 mm 0,0 UV-I 31 W/m 6,0 C 6,7 C 0,5 km/h (0 Bft) 97,27 %
23.09.2017 08:00 7,7 C 12,8 C 96 % 1022,3 hPa 0,0 l/m 1,0 km/h (0 Bft) S-SW 0,00 h 0,025 mm 0,0 UV-I 110 W/m 7,1 C 7,7 C 2,3 km/h (1 Bft) 98,82 %
23.09.2017 09:00 9,3 C 12,8 C 97 % 1022,4 hPa 0,0 l/m 3,0 km/h (1 Bft) S-SW 0,57 h 0,051 mm 0,8 UV-I 240 W/m 8,8 C 9,3 C 5,5 km/h (1 Bft) 96,33 %
23.09.2017 10:00 11,2 C 12,8 C 97 % 1022,1 hPa 0,0 l/m 2,8 km/h (1 Bft) W 0,27 h 0,102 mm 1,4 UV-I 297 W/m 10,7 C 11,1 C 5,6 km/h (1 Bft) 97,32 %
23.09.2017 11:00 13,6 C 12,8 C 91 % 1021,8 hPa 0,0 l/m 2,5 km/h (1 Bft) N-NO 0,87 h 0,152 mm 2,5 UV-I 578 W/m 12,2 C 13,6 C 5,7 km/h (1 Bft) 98,03 %
23.09.2017 12:00 16,0 C 12,8 C 74 % 1021,4 hPa 0,0 l/m 3,3 km/h (1 Bft) W-NW 1,00 h 0,280 mm 3,3 UV-I 665 W/m 11,4 C 16,0 C 7,1 km/h (2 Bft) 99,12 %
23.09.2017 13:00 17,0 C 12,8 C 62 % 1020,9 hPa 0,0 l/m 5,6 km/h (1 Bft) W-SW 1,00 h 0,355 mm 3,2 UV-I 649 W/m 9,8 C 16,7 C 10,6 km/h (2 Bft) 98,88 %
23.09.2017 14:00 17,9 C 12,8 C 59 % 1020,3 hPa 0,0 l/m 4,2 km/h (1 Bft) SW 1,00 h 0,381 mm 2,6 UV-I 580 W/m 9,7 C 17,8 C 9,0 km/h (2 Bft) 98,38 %
23.09.2017 15:00 18,4 C 12,8 C 55 % 1019,7 hPa 0,0 l/m 6,5 km/h (2 Bft) W-SW 1,00 h 0,330 mm 1,8 UV-I 485 W/m 9,2 C 18,0 C 11,9 km/h (2 Bft) 98,86 %
23.09.2017 16:00 18,4 C 12,8 C 54 % 1019,1 hPa 0,0 l/m 5,5 km/h (1 Bft) W-SW 1,00 h 0,305 mm 1,0 UV-I 341 W/m 8,9 C 18,2 C 10,0 km/h (2 Bft) 98,58 %
23.09.2017 17:00 17,8 C 12,8 C 58 % 1019,1 hPa 0,0 l/m 3,1 km/h (1 Bft) W 0,87 h 0,229 mm 0,5 UV-I 178 W/m 9,3 C 17,8 C 6,1 km/h (2 Bft) 97,72 %
23.09.2017 18:00 15,7 C 12,8 C 69 % 1019,2 hPa 0,0 l/m 0,9 km/h (0 Bft) W 0,07 h 0,127 mm 0,0 UV-I 30 W/m 10,0 C 15,7 C 2,3 km/h (1 Bft) 96,13 %
23.09.2017 19:00 13,5 C 12,8 C 82 % 1019,4 hPa 0,0 l/m 1,4 km/h (1 Bft) SW 0,00 h 0,025 mm 0,0 UV-I 5 W/m 10,5 C 13,5 C 3,0 km/h (1 Bft) 99,29 %
23.09.2017 20:00 13,4 C 12,9 C 83 % 1019,5 hPa 0,0 l/m 1,6 km/h (1 Bft) S-SW 0,00 h 0,000 mm 0,0 UV-I 0 W/m 10,6 C 13,4 C 3,7 km/h (1 Bft) 98,24 %
23.09.2017 21:00 13,5 C 13,2 C 82 % 1019,5 hPa 0,0 l/m 2,8 km/h (1 Bft) S 0,00 h 0,000 mm 0,0 UV-I 0 W/m 10,5 C 13,5 C 4,9 km/h (1 Bft) 98,06 %
23.09.2017 22:00 13,0 C 13,3 C 85 % 1019,5 hPa 0,0 l/m 2,0 km/h (1 Bft) S-SW 0,00 h 0,000 mm 0,0 UV-I 0 W/m 10,6 C 13,0 C 3,9 km/h (1 Bft) 96,58 %
23.09.2017 23:00 11,7 C 13,3 C 89 % 1019,5 hPa 0,0 l/m 1,7 km/h (1 Bft) S-SW 0,00 h 0,000 mm 0,0 UV-I 0 W/m 9,9 C 11,7 C 3,5 km/h (1 Bft) 99,06 %
24.09.2017 00:00 11,1 C 13,3 C 90 % 1019,2 hPa 0,0 l/m 3,1 km/h (1 Bft) S 0,00 h 0,000 mm 0,0 UV-I 0 W/m 9,5 C 11,1 C 5,3 km/h (1 Bft) 98,94 %
24.09.2017 01:00 9,9 C 13,3 C 92 % 1019,1 hPa 0,0 l/m 1,1 km/h (1 Bft) S-SO 0,00 h 0,000 mm 0,0 UV-I 0 W/m 8,7 C 9,9 C 2,3 km/h (1 Bft) 97,10 %
24.09.2017 02:00 9,3 C 13,3 C 94 % 1019,0 hPa 0,0 l/m 1,9 km/h (1 Bft) S-SW 0,00 h 0,000 mm 0,0 UV-I 0 W/m 8,4 C 9,3 C 3,8 km/h (1 Bft) 98,44 %
24.09.2017 03:00 8,7 C 13,1 C 94 % 1019,0 hPa 0,0 l/m 1,6 km/h (1 Bft) S-SO 0,00 h 0,000 mm 0,0 UV-I 0 W/m 7,9 C 8,7 C 3,7 km/h (1 Bft) 98,27 %
24.09.2017 04:00 8,6 C 12,8 C 95 % 1019,0 hPa 0,0 l/m 1,7 km/h (1 Bft) S 0,00 h 0,000 mm 0,0 UV-I 0 W/m 7,8 C 8,6 C 3,4 km/h (1 Bft) 99,06 %
24.09.2017 05:00 8,0 C 12,8 C 95 % 1019,0 hPa 0,0 l/m 0,9 km/h (0 Bft) O-NO 0,00 h 0,000 mm 0,0 UV-I 0 W/m 7,3 C 8,0 C 1,9 km/h (1 Bft) 96,99 %
24.09.2017 06:00 8,0 C 12,8 C 96 % 1019,2 hPa 0,0 l/m 1,3 km/h (1 Bft) S-SO 0,00 h 0,000 mm 0,0 UV-I 5 W/m 7,3 C 8,0 C 2,9 km/h (1 Bft) 99,44 %
24.09.2017 07:00 8,8 C 12,8 C 96 % 1019,4 hPa 0,0 l/m 0,6 km/h (0 Bft) S-SO 0,00 h 0,000 mm 0,0 UV-I 18 W/m 8,2 C 8,8 C 1,8 km/h (1 Bft) 97,96 %
24.09.2017 08:00 9,8 C 12,8 C 95 % 1019,7 hPa 0,0 l/m 0,0 km/h (0 Bft) N 0,00 h 0,000 mm 0,0 UV-I 92 W/m 9,1 C 9,8 C 0,1 km/h (0 Bft) 97,48 %
24.09.2017 09:00 11,4 C 12,8 C 92 % 1020,0 hPa 0,0 l/m 1,3 km/h (1 Bft) S-SW 0,13 h 0,051 mm 0,7 UV-I 199 W/m 10,0 C 11,4 C 3,1 km/h (1 Bft) 98,00 %
24.09.2017 10:00 13,2 C 12,8 C 85 % 1020,2 hPa 0,0 l/m 2,2 km/h (1 Bft) NO 0,43 h 0,101 mm 1,2 UV-I 294 W/m 10,7 C 13,2 C 4,4 km/h (1 Bft) 99,75 %
24.09.2017 11:00 14,2 C 12,8 C 81 % 1020,3 hPa 0,0 l/m 3,0 km/h (1 Bft) NO 0,23 h 0,153 mm 1,5 UV-I 307 W/m 11,0 C 14,2 C 5,2 km/h (1 Bft) 97,88 %
24.09.2017 12:00 14,7 C 12,8 C 80 % 1020,1 hPa 0,0 l/m 1,7 km/h (1 Bft) NO 0,00 h 0,152 mm 1,8 UV-I 315 W/m 11,2 C 14,7 C 3,9 km/h (1 Bft) 99,41 %
24.09.2017 13:00 15,8 C 12,8 C 77 % 1019,8 hPa 0,0 l/m 2,1 km/h (1 Bft) W-SW 0,77 h 0,178 mm 2,8 UV-I 548 W/m 11,8 C 15,8 C 4,8 km/h (1 Bft) 95,65 %
24.09.2017 14:00 17,0 C 13,3 C 72 % 1019,3 hPa 0,0 l/m 3,9 km/h (1 Bft) S-SO 0,80 h 0,305 mm 2,3 UV-I 482 W/m 11,9 C 17,0 C 7,4 km/h (2 Bft) 96,96 %
24.09.2017 15:00 17,4 C 13,3 C 68 % 1019,3 hPa 0,0 l/m 2,9 km/h (1 Bft) SW 0,60 h 0,279 mm 1,2 UV-I 288 W/m 11,5 C 17,4 C 5,3 km/h (1 Bft) 97,53 %
24.09.2017 16:00 17,1 C 13,3 C 71 % 1019,3 hPa 0,0 l/m 2,2 km/h (1 Bft) N-NO 0,00 h 0,178 mm 0,5 UV-I 167 W/m 11,9 C 17,0 C 4,9 km/h (1 Bft) 98,52 %
24.09.2017 17:00 16,2 C 13,3 C 75 % 1019,5 hPa 0,0 l/m 7,3 km/h (2 Bft) NO 0,07 h 0,102 mm 0,0 UV-I 98 W/m 11,7 C 15,5 C 11,2 km/h (2 Bft) 98,55 %
24.09.2017 18:00 15,1 C 13,3 C 80 % 1019,8 hPa 0,0 l/m 3,9 km/h (1 Bft) O-NO 0,03 h 0,076 mm 0,0 UV-I 30 W/m 11,6 C 15,1 C 5,9 km/h (2 Bft) 98,65 %
24.09.2017 19:00 13,5 C 13,3 C 85 % 1020,0 hPa 0,0 l/m 3,6 km/h (1 Bft) O-NO 0,00 h 0,025 mm 0,0 UV-I 5 W/m 11,1 C 13,4 C 5,4 km/h (1 Bft) 96,24 %
24.09.2017 20:00 13,1 C 13,3 C 88 % 1020,3 hPa 0,0 l/m 2,1 km/h (1 Bft) O-NO 0,00 h 0,000 mm 0,0 UV-I 0 W/m 11,1 C 13,1 C 3,6 km/h (1 Bft) 99,20 %
24.09.2017 21:00 12,5 C 13,3 C 90 % 1020,5 hPa 0,0 l/m 0,0 km/h (0 Bft) O 0,00 h 0,000 mm 0,0 UV-I 0 W/m 10,9 C 12,5 C 0,1 km/h (0 Bft) 97,25 %
24.09.2017 22:00 12,0 C 13,3 C 92 % 1020,6 hPa 0,0 l/m 1,0 km/h (0 Bft) O 0,00 h 0,000 mm 0,0 UV-I 0 W/m 10,7 C 12,0 C 1,9 km/h (1 Bft) 97,30 %
24.09.2017 23:00 11,1 C 13,3 C 93 % 1020,5 hPa 0,0 l/m 1,3 km/h (1 Bft) O 0,00 h 0,000 mm 0,0 UV-I 0 W/m 10,0 C 11,1 C 2,6 km/h (1 Bft) 97,16 %
Min-Datum _ 18.09.17 21.09.17 23.09.17 18.09.17 - 18.09.17 - - - - - 18.09.17 20.09.17 18.09.17 18.09.17
_ Min-Zeit 04:34 08:36 15:48 00:42 - 00:00 - - - - - 04:34 00:26 00:00 00:02
Minimum _ 4,4 C 12,8 C 50 % 1014,1 hPa - 0,0 km/h (0 Bft) - - - - - 4,0 C 2,4 C 0,0 km/h (0 Bft) 10,00 %
Max-Datum _ 23.09.17 18.09.17 18.09.17 23.09.17 19.09.17 20.09.17 - 18.09.17 23.09.17 18.09.17 18.09.17 23.09.17 23.09.17 20.09.17 18.09.17
_ Max-Zeit 15:32 00:00 01:42 08:40 07:08 13:44 - 14:23 14:00 12:24 13:28 12:10 15:32 13:44 00:14
Maximum _ 18,7 C 14,4 C 97 % 1022,5 hPa 1,0 l/m 23,4 km/h
W-SW (4 Bft)
- 0,05 h 0,381 mm 3,6 UV-I 928 W/m 13,5 C 18,7 C 32,2 km/h
W-SW (5 Bft)
100,00 %
Durchschnitt _ 11,2 C 13,4 C 87 % 1018,8 hPa #10,0 l/m 5,0 km/h (1 Bft) W-SW #22:30 h #10,541 mm 1,4 UV-I 191 W/m 8,9 C 10,4 C 8,3 km/h (2 Bft) 98,04 %